createdAt,value
2023-04-19T00:01:46.645Z,2.57
2023-04-19T00:04:16.547Z,3.10
2023-04-19T00:06:47.423Z,2.70
2023-04-19T00:09:16.890Z,2.13
2023-04-19T00:11:46.844Z,1.60
2023-04-19T00:14:16.683Z,2.33
2023-04-19T00:16:46.374Z,1.50
2023-04-19T00:19:16.075Z,2.23
2023-04-19T00:21:45.604Z,1.30
2023-04-19T00:24:15.345Z,2.73
2023-04-19T00:26:45.075Z,2.07
2023-04-19T00:29:14.517Z,2.00
2023-04-19T00:31:44.010Z,1.63
2023-04-19T00:34:13.750Z,1.50
2023-04-19T00:36:43.654Z,1.53
2023-04-19T00:39:13.758Z,1.70
2023-04-19T00:41:43.330Z,1.92
2023-04-19T00:44:13.245Z,1.10
2023-04-19T00:46:44.098Z,1.57
2023-04-19T00:49:13.774Z,1.90
2023-04-19T00:51:44.184Z,2.20
2023-04-19T00:54:15.969Z,1.37
2023-04-19T00:56:47.129Z,1.67
2023-04-19T00:59:20.968Z,2.33
2023-04-19T01:01:50.691Z,1.90
2023-04-19T01:04:22.439Z,1.70
2023-04-19T01:06:52.785Z,1.43
2023-04-19T01:09:22.255Z,2.07
2023-04-19T01:11:52.139Z,1.63
2023-04-19T01:14:21.644Z,2.03
2023-04-19T01:16:52.407Z,1.33
2023-04-19T01:19:21.870Z,1.60
2023-04-19T01:21:52.914Z,1.22
2023-04-19T01:24:22.427Z,1.43
2023-04-19T01:26:52.371Z,1.10
2023-04-19T01:29:22.136Z,1.30
2023-04-19T01:31:53.880Z,1.60
2023-04-19T01:34:23.740Z,1.43
2023-04-19T01:36:53.251Z,1.60
2023-04-19T01:39:23.213Z,1.50
2023-04-19T01:41:52.712Z,1.00
2023-04-19T01:44:22.893Z,0.80
2023-04-19T01:46:52.406Z,1.30
2023-04-19T01:49:21.940Z,1.40
2023-04-19T01:51:51.630Z,1.23
2023-04-19T01:54:21.110Z,1.40
2023-04-19T01:56:50.623Z,0.77
2023-04-19T01:59:20.116Z,1.50
2023-04-19T02:01:49.606Z,1.00
2023-04-19T02:04:24.877Z,0.90
2023-04-19T02:06:54.562Z,1.30
2023-04-19T02:09:24.080Z,1.03
2023-04-19T02:11:53.578Z,0.77
2023-04-19T02:14:23.056Z,0.60
2023-04-19T02:16:52.694Z,1.17
2023-04-19T02:19:22.168Z,0.50
2023-04-19T02:21:53.302Z,1.03
2023-04-19T02:24:22.794Z,0.77
2023-04-19T02:26:52.450Z,0.67
2023-04-19T02:29:21.939Z,0.50
2023-04-19T02:31:51.461Z,0.70
2023-04-19T02:34:20.990Z,0.90
2023-04-19T02:36:50.922Z,1.43
2023-04-19T02:39:20.414Z,0.60
2023-04-19T02:41:50.374Z,1.13
2023-04-19T02:44:19.940Z,0.93
2023-04-19T02:46:57.642Z,0.80
2023-04-19T02:49:27.275Z,1.07
2023-04-19T02:51:56.753Z,0.80
2023-04-19T02:54:26.260Z,0.57
2023-04-19T02:56:57.608Z,0.70
2023-04-19T02:59:27.137Z,0.57
2023-04-19T03:01:56.692Z,0.70
2023-04-19T03:04:27.147Z,0.50
2023-04-19T03:06:56.732Z,0.43
2023-04-19T03:09:26.249Z,0.50
2023-04-19T03:11:55.733Z,0.40
2023-04-19T03:14:25.287Z,0.37
2023-04-19T03:16:54.782Z,0.50
2023-04-19T03:19:24.497Z,0.40
2023-04-19T03:21:53.970Z,0.37
2023-04-19T03:24:31.841Z,0.40
2023-04-19T03:27:01.322Z,0.40
2023-04-19T03:29:31.053Z,0.80
2023-04-19T03:32:00.558Z,0.57
2023-04-19T03:34:30.100Z,0.50
2023-04-19T03:36:59.621Z,0.30
2023-04-19T03:39:29.112Z,0.50
2023-04-19T03:41:58.597Z,0.30
2023-04-19T03:44:28.140Z,0.40
2023-04-19T03:46:57.627Z,0.53
2023-04-19T03:49:27.142Z,0.50
2023-04-19T03:51:56.620Z,0.50
2023-04-19T03:54:26.321Z,0.50
2023-04-19T03:56:55.886Z,0.30
2023-04-19T03:59:25.438Z,0.50
2023-04-19T04:01:55.766Z,0.55
2023-04-19T04:04:25.611Z,0.50
2023-04-19T04:06:55.742Z,0.70
2023-04-19T04:09:25.284Z,0.63
2023-04-19T04:11:54.859Z,0.40
2023-04-19T04:14:25.524Z,0.40
2023-04-19T04:16:55.084Z,0.60
2023-04-19T04:19:24.561Z,0.47
2023-04-19T04:21:54.115Z,0.60
2023-04-19T04:24:23.627Z,0.60
2023-04-19T04:26:53.188Z,1.00
2023-04-19T04:29:23.152Z,0.63
2023-04-19T04:31:52.717Z,0.70
2023-04-19T04:34:22.882Z,0.33
2023-04-19T04:36:53.227Z,1.33
2023-04-19T04:39:22.997Z,1.47
2023-04-19T04:41:53.268Z,0.60
2023-04-19T04:44:23.394Z,1.10
2023-04-19T04:46:52.955Z,0.60
2023-04-19T04:49:22.461Z,2.10
2023-04-19T04:51:52.008Z,1.33
2023-04-19T04:54:21.538Z,0.67
2023-04-19T04:56:51.101Z,0.90
2023-04-19T04:59:20.757Z,1.17
2023-04-19T05:01:50.367Z,1.87
2023-04-19T05:04:20.680Z,0.70
2023-04-19T05:06:50.199Z,1.13
2023-04-19T05:09:19.825Z,1.00
2023-04-19T05:11:49.370Z,0.70
2023-04-19T05:14:19.034Z,1.13
2023-04-19T05:16:48.623Z,1.10
2023-04-19T05:19:18.201Z,0.83
2023-04-19T05:21:47.690Z,0.70
2023-04-19T05:24:17.405Z,1.50
2023-04-19T05:26:47.093Z,0.70
2023-04-19T05:29:18.136Z,1.10
2023-04-19T05:31:47.703Z,1.13
2023-04-19T05:34:19.207Z,1.13
2023-04-19T05:36:48.520Z,1.20
2023-04-19T05:39:18.107Z,0.87
2023-04-19T05:41:47.587Z,0.90
2023-04-19T05:44:17.452Z,0.73
2023-04-19T05:46:47.142Z,1.03
2023-04-19T05:49:16.726Z,0.87
2023-04-19T05:51:46.197Z,1.63
2023-04-19T05:54:16.904Z,1.60
2023-04-19T05:56:46.626Z,0.80
2023-04-19T05:59:16.236Z,1.47
2023-04-19T06:01:45.944Z,2.17
2023-04-19T06:04:15.886Z,1.33
2023-04-19T06:06:45.808Z,2.00
2023-04-19T06:09:15.326Z,1.20
2023-04-19T06:11:50.820Z,1.67
2023-04-19T06:14:16.825Z,0.60
2023-04-19T06:16:46.476Z,1.10
2023-04-19T06:19:16.335Z,0.80
2023-04-19T06:21:46.067Z,1.00
2023-04-19T06:24:15.898Z,1.63
2023-04-19T06:26:47.268Z,1.13
2023-04-19T06:29:16.957Z,1.30
2023-04-19T06:31:46.629Z,1.37
2023-04-19T06:34:16.582Z,1.63
2023-04-19T06:36:46.413Z,0.97
2023-04-19T06:39:17.980Z,1.23
2023-04-19T06:41:47.474Z,0.80
2023-04-19T06:44:17.509Z,1.07
2023-04-19T06:46:47.277Z,0.90
2023-04-19T06:49:16.841Z,1.50
2023-04-19T06:51:46.890Z,1.37
2023-04-19T06:54:16.820Z,1.57
2023-04-19T06:56:51.423Z,1.43
2023-04-19T06:59:22.742Z,0.77
2023-04-19T07:01:52.328Z,1.43
2023-04-19T07:04:22.657Z,1.10
2023-04-19T07:06:52.394Z,1.33
2023-04-19T07:09:21.872Z,1.50
2023-04-19T07:11:51.422Z,1.37
2023-04-19T07:14:20.967Z,1.10
2023-04-19T07:16:51.650Z,1.30
2023-04-19T07:19:22.809Z,1.07
2023-04-19T07:21:52.872Z,1.77
2023-04-19T07:24:22.361Z,1.17
2023-04-19T07:26:52.035Z,2.33
2023-04-19T07:29:21.522Z,0.97
2023-04-19T07:31:51.123Z,1.40
2023-04-19T07:34:20.683Z,1.60
2023-04-19T07:36:50.189Z,1.30
2023-04-19T07:39:19.677Z,1.43
2023-04-19T07:41:49.173Z,0.80
2023-04-19T07:44:19.345Z,0.97
2023-04-19T07:46:49.057Z,1.00
2023-04-19T07:49:18.563Z,0.80
2023-04-19T07:51:48.054Z,1.03
2023-04-19T07:54:19.183Z,1.40
2023-04-19T07:56:48.755Z,2.50
2023-04-19T07:59:18.237Z,1.37
2023-04-19T08:01:47.852Z,1.47
2023-04-19T08:04:19.736Z,1.33
2023-04-19T08:06:49.907Z,1.00
2023-04-19T08:09:19.491Z,1.23
2023-04-19T08:11:49.055Z,2.13
2023-04-19T08:14:32.128Z,1.43
2023-04-19T08:17:11.458Z,2.60
2023-04-19T08:19:20.947Z,1.37
2023-04-19T08:21:50.873Z,1.70
2023-04-19T08:24:20.505Z,1.20
2023-04-19T08:26:51.656Z,3.07
2023-04-19T08:29:23.426Z,1.70
2023-04-19T08:31:52.993Z,1.00
2023-04-19T08:34:22.469Z,1.83
2023-04-19T08:37:03.462Z,2.33
2023-04-19T08:39:32.366Z,1.10
2023-04-19T08:42:06.795Z,1.40
2023-04-19T08:44:36.492Z,1.70
2023-04-19T08:47:01.867Z,1.57
2023-04-19T08:49:32.170Z,2.63
2023-04-19T08:52:03.391Z,1.40
2023-04-19T08:54:33.509Z,1.93
2023-04-19T08:57:03.607Z,2.03
2023-04-19T08:59:33.544Z,3.23
2023-04-19T09:02:03.840Z,1.70
2023-04-19T09:04:37.289Z,1.90
2023-04-19T09:07:04.842Z,2.63
2023-04-19T09:09:43.146Z,1.80
2023-04-19T09:12:19.030Z,1.20
2023-04-19T09:15:01.082Z,1.90
2023-04-19T09:17:21.612Z,1.87
2023-04-19T09:19:51.912Z,1.60
2023-04-19T09:22:21.618Z,1.63
2023-04-19T09:27:36.501Z,1.70
2023-04-19T09:30:12.658Z,2.10
2023-04-19T09:32:50.110Z,1.97
2023-04-19T09:35:19.640Z,2.40
2023-04-19T09:38:07.002Z,2.00
2023-04-19T09:40:36.922Z,2.67
2023-04-19T09:43:29.130Z,2.00
2023-04-19T09:45:47.807Z,4.47
2023-04-19T09:48:17.317Z,2.60
2023-04-19T09:51:07.318Z,2.73
2023-04-19T09:53:37.167Z,1.93
2023-04-19T09:56:07.978Z,1.83
2023-04-19T09:58:51.274Z,2.67
2023-04-19T10:01:15.766Z,1.97
2023-04-19T10:03:50.496Z,2.63
2023-04-19T10:08:56.111Z,2.07
2023-04-19T10:11:30.531Z,2.00
2023-04-19T10:14:04.355Z,2.50
2023-04-19T10:16:35.985Z,2.07
2023-04-19T10:19:14.425Z,1.57
2023-04-19T10:21:48.543Z,1.97
2023-04-19T10:24:23.163Z,1.80
2023-04-19T10:27:13.271Z,2.10
2023-04-19T10:30:07.042Z,2.83
2023-04-19T10:32:43.367Z,2.43
2023-04-19T10:35:29.653Z,2.20
2023-04-19T10:38:16.569Z,1.67
2023-04-19T10:41:01.133Z,1.90
2023-04-19T10:43:35.276Z,1.80
2023-04-19T10:46:16.828Z,3.17
2023-04-19T10:49:07.738Z,2.73
2023-04-19T10:51:44.373Z,2.20
2023-04-19T10:54:37.581Z,2.13
2023-04-19T10:57:11.571Z,2.70
2023-04-19T10:59:43.975Z,3.93
2023-04-19T11:02:28.882Z,2.30
2023-04-19T11:05:01.378Z,1.97
2023-04-19T11:07:33.961Z,2.20
2023-04-19T11:10:03.462Z,2.37
2023-04-19T11:12:32.949Z,2.37
2023-04-19T11:15:03.210Z,2.40
2023-04-19T11:17:33.842Z,2.03
2023-04-19T11:20:10.886Z,1.83
2023-04-19T11:22:43.786Z,1.87
2023-04-19T11:25:21.754Z,2.37
2023-04-19T11:27:55.719Z,3.77
2023-04-19T11:30:33.154Z,2.97
2023-04-19T11:33:02.720Z,2.27
2023-04-19T11:35:32.231Z,3.90
2023-04-19T11:38:01.949Z,2.90
2023-04-19T11:40:32.687Z,3.13
2023-04-19T11:43:05.318Z,3.03
2023-04-19T11:45:39.420Z,1.90
2023-04-19T11:48:16.710Z,2.30
2023-04-19T11:50:48.843Z,2.13
2023-04-19T11:53:22.037Z,3.20
2023-04-19T11:55:58.654Z,2.57
2023-04-19T11:58:36.272Z,2.90
2023-04-19T12:01:22.410Z,2.40
2023-04-19T12:03:59.453Z,2.10
2023-04-19T12:06:32.069Z,3.53
2023-04-19T12:09:01.530Z,1.40
2023-04-19T12:11:49.847Z,2.37
2023-04-19T12:14:23.006Z,1.60
2023-04-19T12:17:15.804Z,1.93
2023-04-19T12:19:48.315Z,3.20
2023-04-19T12:22:20.884Z,1.80
2023-04-19T12:24:55.913Z,2.17
2023-04-19T12:27:26.127Z,2.00
2023-04-19T12:29:55.733Z,2.43
2023-04-19T12:32:25.888Z,5.17
2023-04-19T12:34:56.004Z,2.80
2023-04-19T12:37:25.781Z,2.40
2023-04-19T12:39:56.376Z,2.17
2023-04-19T12:42:25.945Z,2.77
2023-04-19T12:44:55.447Z,2.50
2023-04-19T12:47:24.990Z,2.30
2023-04-19T12:49:56.184Z,3.13
2023-04-19T12:52:26.293Z,2.80
2023-04-19T12:54:56.078Z,2.27
2023-04-19T12:57:25.556Z,2.17
2023-04-19T12:59:55.113Z,2.43
2023-04-19T13:02:24.887Z,3.75
2023-04-19T13:04:54.584Z,3.47
2023-04-19T13:07:24.329Z,2.23
2023-04-19T13:09:56.008Z,2.33
2023-04-19T13:12:25.023Z,3.27
2023-04-19T13:14:54.680Z,2.43
2023-04-19T13:17:24.356Z,2.60
2023-04-19T13:19:53.848Z,2.60
2023-04-19T13:22:23.341Z,2.33
2023-04-19T13:24:52.840Z,3.23
2023-04-19T13:27:22.319Z,3.30
2023-04-19T13:29:51.876Z,3.30
2023-04-19T13:32:21.402Z,3.40
2023-04-19T13:34:50.968Z,2.77
2023-04-19T13:37:20.516Z,3.77
2023-04-19T13:39:50.155Z,3.10
2023-04-19T13:42:20.412Z,2.90
2023-04-19T13:44:50.602Z,2.67
2023-04-19T13:47:20.122Z,2.87
2023-04-19T13:49:51.264Z,2.60
2023-04-19T13:52:23.595Z,3.30
2023-04-19T13:54:53.091Z,2.53
2023-04-19T13:57:22.559Z,3.93
2023-04-19T13:59:52.083Z,3.60
2023-04-19T14:02:21.919Z,3.87
2023-04-19T14:04:51.958Z,3.20
2023-04-19T14:07:21.418Z,3.10
2023-04-19T14:09:51.592Z,2.30
2023-04-19T14:12:21.083Z,3.10
2023-04-19T14:14:50.585Z,2.67
2023-04-19T14:17:20.074Z,3.70
2023-04-19T14:19:49.586Z,2.87
2023-04-19T14:22:19.452Z,4.30
2023-04-19T14:24:48.948Z,2.20
2023-04-19T14:27:19.245Z,3.23
2023-04-19T14:29:48.781Z,4.43
2023-04-19T14:32:26.065Z,2.80
2023-04-19T14:34:49.454Z,2.37
2023-04-19T14:37:19.658Z,3.53
2023-04-19T14:39:49.142Z,3.00
2023-04-19T14:42:20.805Z,2.57
2023-04-19T14:44:52.878Z,4.47
2023-04-19T14:47:23.060Z,3.17
2023-04-19T14:49:53.049Z,3.83
2023-04-19T14:52:22.759Z,4.50
2023-04-19T14:54:52.417Z,3.93
2023-04-19T14:57:21.913Z,3.40
2023-04-19T14:59:51.520Z,3.07
2023-04-19T15:02:21.361Z,4.58
2023-04-19T15:04:51.053Z,4.80
2023-04-19T15:07:21.698Z,6.83
2023-04-19T15:09:51.183Z,4.37
2023-04-19T15:12:21.097Z,3.90
2023-04-19T15:14:50.550Z,3.80
2023-04-19T15:17:20.442Z,2.30
2023-04-19T15:19:49.925Z,2.90
2023-04-19T15:22:19.444Z,4.23
2023-04-19T15:24:48.946Z,4.03
2023-04-19T15:27:18.437Z,5.07
2023-04-19T15:29:49.261Z,4.00
2023-04-19T15:32:18.751Z,4.77
2023-04-19T15:34:48.268Z,2.80
2023-04-19T15:37:17.776Z,3.27
2023-04-19T15:39:49.017Z,4.67
2023-04-19T15:42:18.503Z,2.27
2023-04-19T15:44:53.404Z,4.00
2023-04-19T15:47:29.546Z,3.33
2023-04-19T15:49:59.300Z,2.53
2023-04-19T15:52:28.927Z,2.53
2023-04-19T15:54:58.385Z,2.70
2023-04-19T15:57:28.337Z,1.80
2023-04-19T15:59:57.901Z,4.97
2023-04-19T16:02:27.712Z,4.83
2023-04-19T16:04:57.469Z,2.43
2023-04-19T16:07:27.032Z,2.57
2023-04-19T16:09:56.508Z,2.10
2023-04-19T16:12:26.297Z,2.07
2023-04-19T16:14:55.757Z,2.47
2023-04-19T16:17:25.701Z,2.20
2023-04-19T16:19:55.244Z,1.43
2023-04-19T16:22:25.579Z,1.70
2023-04-19T16:24:55.068Z,1.30
2023-04-19T16:27:24.580Z,1.80
2023-04-19T16:29:54.053Z,1.70
2023-04-19T16:32:23.617Z,1.77
2023-04-19T16:34:53.119Z,1.37
2023-04-19T16:37:22.626Z,1.37
2023-04-19T16:39:52.111Z,1.07
2023-04-19T16:42:21.633Z,1.50
2023-04-19T16:44:51.124Z,1.47
2023-04-19T16:47:21.883Z,3.17
2023-04-19T16:49:51.375Z,1.20
2023-04-19T16:52:20.859Z,1.23
2023-04-19T16:54:50.359Z,1.50
2023-04-19T16:57:20.297Z,2.70
2023-04-19T16:59:49.844Z,1.70
2023-04-19T17:02:19.691Z,2.00
2023-04-19T17:04:49.560Z,2.20
2023-04-19T17:07:20.370Z,1.53
2023-04-19T17:09:49.853Z,1.60
2023-04-19T17:12:20.395Z,1.33
2023-04-19T17:14:49.878Z,1.73
2023-04-19T17:17:20.106Z,1.87
2023-04-19T17:19:49.589Z,1.67
2023-04-19T17:22:19.095Z,1.80
2023-04-19T17:24:48.580Z,2.30
2023-04-19T17:27:18.076Z,2.10
2023-04-19T17:29:47.617Z,1.93
2023-04-19T17:32:17.145Z,1.53
2023-04-19T17:34:46.621Z,1.70
2023-04-19T17:37:16.693Z,4.00
2023-04-19T17:39:46.200Z,1.63
2023-04-19T17:42:16.150Z,0.93
2023-04-19T17:44:45.633Z,1.47
2023-04-19T17:47:15.188Z,1.67
2023-04-19T17:49:46.945Z,1.43
2023-04-19T17:52:16.526Z,2.03
2023-04-19T17:54:46.062Z,1.43
2023-04-19T17:57:15.594Z,2.13
2023-04-19T17:59:46.065Z,3.10
2023-04-19T18:02:15.744Z,3.17
2023-04-19T18:04:45.588Z,2.67
2023-04-19T18:07:15.162Z,1.77
2023-04-19T18:09:44.640Z,1.13
2023-04-19T18:12:14.127Z,1.30
2023-04-19T18:14:43.626Z,1.77
2023-04-19T18:17:13.110Z,1.80
2023-04-19T18:19:42.623Z,1.43
2023-04-19T18:22:12.131Z,1.50
2023-04-19T18:24:43.262Z,1.60
2023-04-19T18:27:12.919Z,2.00
2023-04-19T18:29:42.520Z,1.70
2023-04-19T18:32:12.017Z,1.20
2023-04-19T18:34:41.852Z,1.33
2023-04-19T18:37:17.338Z,1.73
2023-04-19T18:39:47.030Z,1.50
2023-04-19T18:42:16.549Z,1.40
2023-04-19T18:44:53.529Z,1.30
2023-04-19T18:47:17.273Z,1.63
2023-04-19T18:49:58.017Z,1.63
2023-04-19T18:52:19.701Z,2.00
2023-04-19T18:54:49.545Z,1.73
2023-04-19T18:57:23.530Z,2.03
2023-04-19T18:59:50.240Z,2.33
2023-04-19T19:02:20.025Z,2.17
2023-04-19T19:04:56.770Z,1.60
2023-04-19T19:09:56.215Z,2.70
2023-04-19T19:12:23.145Z,2.40
2023-04-19T19:14:52.962Z,2.50
2023-04-19T19:17:24.272Z,1.80
2023-04-19T19:19:54.075Z,1.90
2023-04-19T19:22:28.252Z,1.90
2023-04-19T19:24:54.725Z,1.57
2023-04-19T19:27:24.414Z,2.30
2023-04-19T19:29:53.870Z,1.60
2023-04-19T19:32:23.450Z,1.53
2023-04-19T19:35:00.689Z,2.10
2023-04-19T19:37:24.365Z,1.87
2023-04-19T19:39:56.395Z,1.57
2023-04-19T19:42:25.833Z,2.10
2023-04-19T19:44:56.418Z,3.90
2023-04-19T19:47:31.606Z,2.23
2023-04-19T19:52:33.694Z,2.67
2023-04-19T19:55:03.408Z,2.60
2023-04-19T20:00:22.826Z,2.00
2023-04-19T20:02:42.942Z,1.90
2023-04-19T20:05:08.652Z,2.83
2023-04-19T20:10:15.291Z,2.47
2023-04-19T20:12:45.543Z,2.13
2023-04-19T20:15:15.381Z,2.47
2023-04-19T20:17:45.557Z,1.97
2023-04-19T20:20:15.158Z,3.13
2023-04-19T20:22:44.656Z,3.77
2023-04-19T20:25:14.212Z,4.00
2023-04-19T20:27:43.733Z,3.43
2023-04-19T20:30:13.797Z,4.33
2023-04-19T20:32:43.434Z,3.13
2023-04-19T20:35:13.519Z,2.90
2023-04-19T20:37:44.389Z,2.50
2023-04-19T20:40:16.244Z,3.73
2023-04-19T20:42:45.861Z,2.53
2023-04-19T20:45:15.346Z,2.47
2023-04-19T20:47:44.925Z,2.73
2023-04-19T20:50:14.496Z,2.40
2023-04-19T20:52:44.032Z,3.63
2023-04-19T20:55:14.360Z,4.97
2023-04-19T20:57:43.923Z,4.37
2023-04-19T21:00:16.052Z,3.23
2023-04-19T21:02:46.237Z,3.90
2023-04-19T21:05:15.937Z,2.47
2023-04-19T21:07:45.430Z,3.97
2023-04-19T21:10:16.566Z,2.67
2023-04-19T21:12:46.054Z,2.47
2023-04-19T21:15:16.180Z,3.03
2023-04-19T21:17:45.685Z,3.27
2023-04-19T21:20:16.885Z,2.30
2023-04-19T21:22:47.785Z,2.00
2023-04-19T21:25:17.945Z,2.97
2023-04-19T21:27:47.472Z,2.37
2023-04-19T21:30:16.957Z,4.13
2023-04-19T21:32:46.566Z,2.83
2023-04-19T21:35:16.085Z,4.07
2023-04-19T21:37:45.577Z,3.50
2023-04-19T21:40:15.224Z,4.40
2023-04-19T21:42:44.706Z,2.30
2023-04-19T21:45:14.190Z,2.63
2023-04-19T21:47:43.764Z,2.43
2023-04-19T21:50:13.488Z,2.60
2023-04-19T21:52:42.977Z,2.50
2023-04-19T21:55:12.458Z,3.90
2023-04-19T21:57:41.959Z,2.33
2023-04-19T22:00:12.065Z,3.33
2023-04-19T22:02:41.773Z,2.20
2023-04-19T22:05:12.940Z,2.80
2023-04-19T22:07:42.758Z,2.97
2023-04-19T22:10:13.690Z,3.43
2023-04-19T22:12:55.141Z,2.93
2023-04-19T22:15:14.952Z,3.27
2023-04-19T22:17:45.948Z,2.43
2023-04-19T22:20:15.931Z,2.43
2023-04-19T22:22:45.492Z,2.63
2023-04-19T22:25:14.970Z,1.63
2023-04-19T22:27:45.403Z,1.73
2023-04-19T22:30:14.970Z,1.63
2023-04-19T22:32:44.489Z,2.60
2023-04-19T22:35:14.019Z,2.80
2023-04-19T22:37:44.141Z,2.23
2023-04-19T22:40:14.255Z,2.50
2023-04-19T22:42:43.744Z,1.83
2023-04-19T22:45:13.324Z,1.80
2023-04-19T22:47:42.876Z,2.57
2023-04-19T22:50:12.595Z,2.43
2023-04-19T22:52:42.568Z,2.20
2023-04-19T22:55:12.576Z,1.70
2023-04-19T22:57:43.089Z,2.87
2023-04-19T23:00:13.234Z,3.27
2023-04-19T23:02:42.819Z,2.53
2023-04-19T23:05:12.524Z,1.90
2023-04-19T23:07:43.756Z,1.83
2023-04-19T23:10:13.932Z,1.90
2023-04-19T23:12:43.437Z,1.83
2023-04-19T23:15:13.389Z,1.87
2023-04-19T23:17:43.087Z,2.60
2023-04-19T23:20:13.501Z,2.83
2023-04-19T23:22:43.264Z,1.80
2023-04-19T23:25:12.847Z,1.43
2023-04-19T23:27:42.338Z,2.07
2023-04-19T23:30:12.068Z,2.17
2023-04-19T23:32:42.428Z,2.60
2023-04-19T23:35:11.906Z,2.10
2023-04-19T23:37:41.389Z,1.73
2023-04-19T23:40:11.692Z,1.40
2023-04-19T23:42:41.188Z,1.70
2023-04-19T23:45:11.513Z,1.60
2023-04-19T23:47:41.328Z,1.60
2023-04-19T23:50:11.384Z,1.30
2023-04-19T23:52:41.417Z,1.93
2023-04-19T23:55:11.095Z,1.65
2023-04-19T23:57:40.918Z,1.60
